createdAt,value
2023-03-25T00:02:21.785Z,10.13
2023-03-25T00:04:55.730Z,10.09
2023-03-25T00:07:22.946Z,10.08
2023-03-25T00:09:49.904Z,10.01
2023-03-25T00:12:19.078Z,10.06
2023-03-25T00:14:54.919Z,10.12
2023-03-25T00:17:23.551Z,10.08
2023-03-25T00:19:52.144Z,9.99
2023-03-25T00:22:19.279Z,10.04
2023-03-25T00:24:46.119Z,9.98
2023-03-25T00:27:14.298Z,10.04
2023-03-25T00:29:42.313Z,10.04
2023-03-25T00:32:08.986Z,10.05
2023-03-25T00:34:41.691Z,10.03
2023-03-25T00:37:09.357Z,10.08
2023-03-25T00:39:37.450Z,10.07
2023-03-25T00:42:04.466Z,10.12
2023-03-25T00:44:31.959Z,10.17
2023-03-25T00:46:58.618Z,10.22
2023-03-25T00:49:25.497Z,10.23
2023-03-25T00:51:54.194Z,10.24
2023-03-25T00:54:22.331Z,10.30
2023-03-25T00:56:50.520Z,10.28
2023-03-25T00:59:17.181Z,10.34
2023-03-25T01:01:46.240Z,10.34
2023-03-25T01:04:13.166Z,10.26
2023-03-25T01:06:43.936Z,10.24
2023-03-25T01:09:17.226Z,10.21
2023-03-25T01:11:45.767Z,10.22
2023-03-25T01:14:16.922Z,10.17
2023-03-25T01:16:43.913Z,10.14
2023-03-25T01:19:11.270Z,10.13
2023-03-25T01:21:38.182Z,10.09
2023-03-25T01:24:06.967Z,10.16
2023-03-25T01:26:34.148Z,10.09
2023-03-25T01:29:00.947Z,10.09
2023-03-25T01:31:30.343Z,10.11
2023-03-25T01:33:58.243Z,10.06
2023-03-25T01:36:29.569Z,10.06
2023-03-25T01:38:59.182Z,9.98
2023-03-25T01:41:35.689Z,9.95
2023-03-25T01:44:30.252Z,9.95
2023-03-25T01:47:03.988Z,9.97
2023-03-25T01:49:39.232Z,10.00
2023-03-25T01:52:09.514Z,10.04
2023-03-25T01:54:38.811Z,9.90
2023-03-25T01:57:08.715Z,9.75
2023-03-25T01:59:38.018Z,9.80
2023-03-25T02:02:09.106Z,9.64
2023-03-25T02:04:42.733Z,9.81
2023-03-25T02:07:10.262Z,9.76
2023-03-25T02:09:38.968Z,9.68
2023-03-25T02:12:05.755Z,9.68
2023-03-25T02:14:35.347Z,9.64
2023-03-25T02:17:22.392Z,9.66
2023-03-25T02:20:19.514Z,9.56
2023-03-25T02:22:57.412Z,9.49
2023-03-25T02:25:35.766Z,9.47
2023-03-25T02:28:17.997Z,9.47
2023-03-25T02:31:09.375Z,9.45
2023-03-25T02:33:55.403Z,9.45
2023-03-25T02:36:56.379Z,9.44
2023-03-25T02:39:34.076Z,9.43
2023-03-25T02:42:06.424Z,9.43
2023-03-25T02:44:41.900Z,9.42
2023-03-25T02:47:20.968Z,9.44
2023-03-25T02:50:01.057Z,9.46
2023-03-25T02:52:33.066Z,9.44
2023-03-25T02:55:05.021Z,9.40
2023-03-25T02:57:35.429Z,9.42
2023-03-25T03:00:10.593Z,9.45
2023-03-25T03:02:39.177Z,9.45
2023-03-25T03:05:22.559Z,9.43
2023-03-25T03:07:55.257Z,9.30
2023-03-25T03:10:29.140Z,9.27
2023-03-25T03:13:19.263Z,9.27
2023-03-25T03:16:04.252Z,9.26
2023-03-25T03:18:44.920Z,9.25
2023-03-25T03:21:18.038Z,9.23
2023-03-25T03:23:56.754Z,9.19
2023-03-25T03:26:34.429Z,9.14
2023-03-25T03:29:05.848Z,9.16
2023-03-25T03:31:48.189Z,9.10
2023-03-25T03:34:47.070Z,9.11
2023-03-25T03:37:17.213Z,9.10
2023-03-25T03:39:47.708Z,9.08
2023-03-25T03:42:23.834Z,9.07
2023-03-25T03:44:56.958Z,9.03
2023-03-25T03:47:29.714Z,8.99
2023-03-25T03:50:00.462Z,9.01
2023-03-25T03:52:33.717Z,9.01
2023-03-25T03:55:04.804Z,9.02
2023-03-25T03:57:40.008Z,9.01
2023-03-25T04:00:09.973Z,9.06
2023-03-25T04:02:43.002Z,9.05
2023-03-25T04:05:13.210Z,9.03
2023-03-25T04:07:43.130Z,9.10
2023-03-25T04:10:21.652Z,9.08
2023-03-25T04:12:52.568Z,9.00
2023-03-25T04:15:19.364Z,9.10
2023-03-25T04:17:48.144Z,9.04
2023-03-25T04:20:18.737Z,9.05
2023-03-25T04:22:45.535Z,9.01
2023-03-25T04:25:14.086Z,9.16
2023-03-25T04:27:41.087Z,9.13
2023-03-25T04:30:09.477Z,9.16
2023-03-25T04:32:36.488Z,9.18
2023-03-25T04:35:03.710Z,9.26
2023-03-25T04:37:33.785Z,9.12
2023-03-25T04:40:00.632Z,9.13
2023-03-25T04:42:32.850Z,9.17
2023-03-25T04:44:59.810Z,9.12
2023-03-25T04:47:27.332Z,9.06
2023-03-25T04:49:53.978Z,9.01
2023-03-25T04:52:20.935Z,9.01
2023-03-25T04:54:47.735Z,8.94
2023-03-25T04:57:15.391Z,8.96
2023-03-25T04:59:42.360Z,8.91
2023-03-25T05:02:13.590Z,8.98
2023-03-25T05:04:42.997Z,8.91
2023-03-25T05:07:09.907Z,8.90
2023-03-25T05:09:39.727Z,8.85
2023-03-25T05:12:11.172Z,8.88
2023-03-25T05:14:37.930Z,8.94
2023-03-25T05:17:04.609Z,8.96
2023-03-25T05:19:34.942Z,9.05
2023-03-25T05:22:04.620Z,8.92
2023-03-25T05:24:31.400Z,8.98
2023-03-25T05:26:58.015Z,8.94
2023-03-25T05:29:24.672Z,8.95
2023-03-25T05:31:51.349Z,8.89
2023-03-25T05:34:18.008Z,8.91
2023-03-25T05:36:45.022Z,8.95
2023-03-25T05:39:12.138Z,9.00
2023-03-25T05:41:39.043Z,9.04
2023-03-25T05:44:08.782Z,9.07
2023-03-25T05:46:35.691Z,9.11
2023-03-25T05:49:05.515Z,9.14
2023-03-25T05:51:37.460Z,9.27
2023-03-25T05:54:11.283Z,9.33
2023-03-25T05:56:38.613Z,9.31
2023-03-25T05:59:05.471Z,9.32
2023-03-25T06:01:34.299Z,9.38
2023-03-25T06:04:02.887Z,9.35
2023-03-25T06:06:32.210Z,9.32
2023-03-25T06:08:59.353Z,9.35
2023-03-25T06:11:26.047Z,9.35
2023-03-25T06:13:52.792Z,9.35
2023-03-25T06:16:22.365Z,9.32
2023-03-25T06:18:51.471Z,9.30
2023-03-25T06:21:19.788Z,9.35
2023-03-25T06:23:49.455Z,9.49
2023-03-25T06:26:17.384Z,9.47
2023-03-25T06:28:44.749Z,9.51
2023-03-25T06:31:16.878Z,9.39
2023-03-25T06:33:45.271Z,9.32
2023-03-25T06:36:15.422Z,9.38
2023-03-25T06:38:42.212Z,9.36
2023-03-25T06:41:08.985Z,9.38
2023-03-25T06:43:35.622Z,9.33
2023-03-25T06:46:02.740Z,9.29
2023-03-25T06:48:29.533Z,9.44
2023-03-25T06:50:56.207Z,9.37
2023-03-25T06:53:23.174Z,9.52
2023-03-25T06:55:50.346Z,9.47
2023-03-25T06:58:17.314Z,9.56
2023-03-25T07:00:44.001Z,9.51
2023-03-25T07:03:11.373Z,9.56
2023-03-25T07:05:38.208Z,9.67
2023-03-25T07:08:05.339Z,9.68
2023-03-25T07:10:32.337Z,9.78
2023-03-25T07:12:59.107Z,9.83
2023-03-25T07:15:25.718Z,9.91
2023-03-25T07:17:53.107Z,9.90
2023-03-25T07:20:19.801Z,9.89
2023-03-25T07:22:46.428Z,9.92
2023-03-25T07:25:13.075Z,9.94
2023-03-25T07:27:40.711Z,9.97
2023-03-25T07:30:08.062Z,9.87
2023-03-25T07:32:34.682Z,9.87
2023-03-25T07:35:01.364Z,9.87
2023-03-25T07:37:27.964Z,9.87
2023-03-25T07:39:54.625Z,-146.18
2023-03-25T07:42:21.337Z,-146.18
2023-03-25T07:44:47.972Z,-146.18
2023-03-25T07:47:14.615Z,-146.18
2023-03-25T07:49:42.243Z,9.87
2023-03-25T07:52:08.874Z,-146.18
2023-03-25T07:54:36.059Z,-146.18
2023-03-25T07:57:02.754Z,-146.18
2023-03-25T07:59:29.599Z,-146.18
2023-03-25T08:01:56.333Z,-146.18
2023-03-25T08:04:22.983Z,-146.18
2023-03-25T08:06:49.600Z,-146.18
2023-03-25T08:09:16.256Z,-146.18
2023-03-25T08:11:42.876Z,-146.18
2023-03-25T08:14:09.590Z,-146.18
2023-03-25T08:16:36.361Z,-146.18
2023-03-25T08:19:03.052Z,-146.18
2023-03-25T08:21:30.079Z,-146.18
2023-03-25T08:24:02.297Z,-146.18
2023-03-25T08:26:29.633Z,-146.18
2023-03-25T08:28:57.899Z,-146.18
2023-03-25T08:31:25.779Z,-146.18
2023-03-25T08:33:52.782Z,-146.18
2023-03-25T08:36:19.900Z,-146.18
2023-03-25T08:38:47.383Z,-146.18
2023-03-25T08:41:14.216Z,-146.18
2023-03-25T08:43:41.069Z,-146.18
2023-03-25T08:46:08.184Z,-146.18
2023-03-25T08:48:34.881Z,-146.18
2023-03-25T08:51:02.237Z,-146.18
2023-03-25T08:53:28.882Z,-146.18
2023-03-25T08:55:57.933Z,-146.18
2023-03-25T08:58:25.696Z,-146.18
2023-03-25T09:00:55.732Z,-146.18
2023-03-25T09:03:23.958Z,-146.18
2023-03-25T09:05:51.339Z,-146.18
2023-03-25T09:08:18.376Z,-146.18
2023-03-25T09:10:48.653Z,-146.18
2023-03-25T09:13:15.562Z,-146.18
2023-03-25T09:15:42.279Z,-146.18
2023-03-25T09:18:10.192Z,-146.18
2023-03-25T09:20:36.963Z,-146.18
2023-03-25T09:23:03.982Z,-146.18
2023-03-25T09:25:30.664Z,-146.18
2023-03-25T09:27:57.290Z,-146.18
2023-03-25T09:30:23.937Z,-146.18
2023-03-25T09:32:50.597Z,-146.18
2023-03-25T09:35:17.269Z,-146.18
2023-03-25T09:37:44.509Z,-146.18
2023-03-25T09:40:16.543Z,-146.18
2023-03-25T09:43:03.257Z,-146.18
2023-03-25T09:45:30.051Z,-146.18
2023-03-25T09:48:03.465Z,-146.18
2023-03-25T09:50:35.578Z,-146.18
2023-03-25T09:53:21.330Z,-146.18
2023-03-25T09:55:49.303Z,-146.18
2023-03-25T09:58:38.096Z,-146.18
2023-03-25T10:01:17.922Z,-146.18
2023-03-25T10:03:57.594Z,-146.18
2023-03-25T10:06:26.689Z,-146.18
2023-03-25T10:09:28.623Z,-146.18
2023-03-25T10:12:16.297Z,-146.18
2023-03-25T10:15:13.123Z,-146.18
2023-03-25T10:17:56.653Z,-146.18
2023-03-25T10:20:38.746Z,-146.18
2023-03-25T10:23:21.745Z,-146.18
2023-03-25T10:25:56.858Z,-146.18
2023-03-25T10:28:33.118Z,-146.18
2023-03-25T10:31:00.566Z,-146.18
2023-03-25T10:33:39.292Z,-146.18
2023-03-25T10:36:12.555Z,-146.18
2023-03-25T10:38:42.003Z,-146.18
2023-03-25T10:41:22.889Z,-146.18
2023-03-25T10:43:50.822Z,-146.18
2023-03-25T10:46:37.336Z,-146.18
2023-03-25T10:49:04.052Z,-146.18
2023-03-25T10:51:33.851Z,-146.18
2023-03-25T10:54:00.981Z,-146.18
2023-03-25T10:56:34.434Z,-146.18
2023-03-25T10:59:07.658Z,-146.18
2023-03-25T11:01:40.242Z,-146.18
2023-03-25T11:04:10.437Z,-146.18
2023-03-25T11:06:40.673Z,-146.18
2023-03-25T11:09:08.459Z,-146.18
2023-03-25T11:11:36.618Z,-146.18
2023-03-25T11:14:04.038Z,-146.18
2023-03-25T11:16:34.298Z,-146.18
2023-03-25T11:19:02.606Z,-146.18
2023-03-25T11:21:36.531Z,-146.18
2023-03-25T11:24:06.385Z,-146.18
2023-03-25T11:26:41.313Z,-146.18
2023-03-25T11:29:13.663Z,-146.18
2023-03-25T11:31:42.658Z,-146.18
2023-03-25T11:34:22.982Z,-146.18
2023-03-25T11:36:59.346Z,-146.18
2023-03-25T11:39:29.240Z,-146.18
2023-03-25T11:41:57.232Z,-146.18
2023-03-25T11:44:29.487Z,-146.18
2023-03-25T11:47:01.527Z,-146.18
2023-03-25T11:49:34.809Z,-146.18
2023-03-25T11:52:07.282Z,-146.18
2023-03-25T11:54:37.081Z,-146.18
2023-03-25T11:57:07.030Z,-146.18
2023-03-25T11:59:39.089Z,-146.18
2023-03-25T12:02:23.547Z,-146.18
2023-03-25T12:05:01.407Z,-146.18
2023-03-25T12:07:29.252Z,-146.18
2023-03-25T12:09:58.644Z,-146.18
2023-03-25T12:12:46.162Z,-146.18
2023-03-25T12:15:27.549Z,-146.18
2023-03-25T12:18:12.541Z,-146.18
2023-03-25T12:20:54.404Z,-146.18
2023-03-25T12:23:43.864Z,-146.18
2023-03-25T12:26:13.255Z,-146.18
2023-03-25T12:29:10.442Z,-146.18
2023-03-25T12:31:52.277Z,-146.18
2023-03-25T12:34:49.463Z,-146.18
2023-03-25T12:37:46.570Z,-146.18
2023-03-25T12:40:42.819Z,-146.18
2023-03-25T12:43:13.960Z,-146.18
2023-03-25T12:46:04.247Z,-146.18
2023-03-25T12:48:46.153Z,-146.18
2023-03-25T12:51:28.519Z,-146.18
2023-03-25T12:54:10.689Z,-146.18
2023-03-25T12:56:46.853Z,-146.18
2023-03-25T12:59:43.943Z,-146.18
2023-03-25T13:02:37.730Z,-146.18
2023-03-25T13:05:23.375Z,-146.18
2023-03-25T13:07:58.341Z,-146.18
2023-03-25T13:10:31.267Z,-146.18
2023-03-25T13:13:04.046Z,-146.18
2023-03-25T13:15:48.805Z,-146.18
2023-03-25T13:18:21.725Z,-146.18
2023-03-25T13:21:06.895Z,-146.18
2023-03-25T13:23:42.680Z,-146.18
2023-03-25T13:26:12.356Z,-146.18
2023-03-25T13:28:46.795Z,-146.18
2023-03-25T13:31:19.366Z,-146.18
2023-03-25T13:33:53.635Z,-146.18
2023-03-25T13:36:28.044Z,-146.18
2023-03-25T13:38:59.341Z,-146.18
2023-03-25T13:41:34.342Z,-146.18
2023-03-25T13:44:05.114Z,-146.18
2023-03-25T13:46:41.454Z,-146.18
2023-03-25T13:49:23.802Z,-146.18
2023-03-25T13:51:53.764Z,-146.18
2023-03-25T13:54:31.066Z,-146.18
2023-03-25T13:57:13.106Z,-146.18
2023-03-25T13:59:59.644Z,-146.18
2023-03-25T14:02:53.555Z,-146.18
2023-03-25T14:05:51.596Z,-146.18
2023-03-25T14:08:42.748Z,-146.18
2023-03-25T14:11:25.830Z,-146.18
2023-03-25T14:14:01.806Z,-146.18
2023-03-25T14:16:33.863Z,-146.18
2023-03-25T14:19:06.981Z,-146.18
2023-03-25T14:21:42.047Z,-146.18
2023-03-25T14:24:14.134Z,-146.18
2023-03-25T14:26:49.238Z,-146.18
2023-03-25T14:29:31.964Z,-146.18
2023-03-25T14:32:02.491Z,-146.18
2023-03-25T14:34:29.864Z,-146.18
2023-03-25T14:36:57.452Z,-146.18
2023-03-25T14:39:44.655Z,-146.18
2023-03-25T14:42:26.145Z,-146.18
2023-03-25T14:44:54.716Z,-146.18
2023-03-25T14:47:27.227Z,-146.18
2023-03-25T14:50:05.404Z,-146.18
2023-03-25T14:52:40.694Z,-146.18
2023-03-25T14:55:17.381Z,-146.18
2023-03-25T14:57:45.674Z,-146.18
2023-03-25T15:00:28.948Z,-146.18
2023-03-25T15:03:05.048Z,-146.18
2023-03-25T15:05:34.020Z,-146.18
2023-03-25T15:08:17.645Z,-146.18
2023-03-25T15:10:50.099Z,-146.18
2023-03-25T15:13:38.235Z,-146.18
2023-03-25T15:16:17.519Z,-146.18
2023-03-25T15:18:59.609Z,-146.18
2023-03-25T15:21:30.764Z,-146.18
2023-03-25T15:24:11.939Z,-146.18
2023-03-25T15:26:41.645Z,-146.18
2023-03-25T15:29:33.902Z,-146.18
2023-03-25T15:32:33.403Z,-146.18
2023-03-25T15:35:30.598Z,-146.18
2023-03-25T15:38:24.666Z,-146.18
2023-03-25T15:41:19.568Z,-146.18
2023-03-25T15:44:11.394Z,-146.18
2023-03-25T15:46:53.369Z,-146.18
2023-03-25T15:49:31.123Z,-146.18
2023-03-25T15:52:32.976Z,-146.18
2023-03-25T15:55:22.640Z,-146.18
2023-03-25T15:57:54.260Z,-146.18
2023-03-25T16:00:27.884Z,-146.18
2023-03-25T16:03:05.431Z,-146.18
2023-03-25T16:05:36.086Z,-146.18
2023-03-25T16:08:11.362Z,-146.18
2023-03-25T16:10:39.654Z,-146.18
2023-03-25T16:13:11.562Z,-146.18
2023-03-25T16:15:40.083Z,-146.18
2023-03-25T16:18:11.192Z,-146.18
2023-03-25T16:20:38.104Z,-146.18
2023-03-25T16:23:07.707Z,-146.18
2023-03-25T16:25:38.867Z,-146.18
2023-03-25T16:28:08.183Z,-146.18
2023-03-25T16:30:38.332Z,-146.18
2023-03-25T16:33:19.103Z,-146.18
2023-03-25T16:35:52.252Z,-146.18
2023-03-25T16:38:21.710Z,-146.18
2023-03-25T16:40:50.005Z,-146.18
2023-03-25T16:43:21.400Z,-146.18
2023-03-25T16:45:49.823Z,-146.18
2023-03-25T16:48:23.469Z,-146.18
2023-03-25T16:50:53.965Z,-146.18
2023-03-25T16:53:22.253Z,-146.18
2023-03-25T16:55:56.213Z,-146.18
2023-03-25T16:58:24.843Z,-146.18
2023-03-25T17:00:54.475Z,-146.18
2023-03-25T17:03:45.068Z,-146.18
2023-03-25T17:06:28.379Z,-146.18
2023-03-25T17:08:59.724Z,-146.18
2023-03-25T17:11:28.673Z,-146.18
2023-03-25T17:14:02.496Z,-146.18
2023-03-25T17:16:33.094Z,-146.18
2023-03-25T17:19:01.188Z,-146.18
2023-03-25T17:21:31.732Z,-146.18
2023-03-25T17:24:01.884Z,-146.18
2023-03-25T17:26:53.124Z,-146.18
2023-03-25T17:29:20.303Z,-146.18
2023-03-25T17:31:56.182Z,-146.18
2023-03-25T17:34:24.601Z,-146.18
2023-03-25T17:36:58.542Z,-146.18
2023-03-25T17:39:29.039Z,-146.18
2023-03-25T17:42:13.493Z,-146.18
2023-03-25T17:44:44.098Z,-146.18
2023-03-25T17:47:16.400Z,-146.18
2023-03-25T17:49:44.643Z,-146.18
2023-03-25T17:52:14.653Z,-146.18
2023-03-25T17:54:41.308Z,-146.18
2023-03-25T17:57:14.063Z,-146.18
2023-03-25T17:59:40.878Z,-146.18
2023-03-25T18:02:11.776Z,-146.18
2023-03-25T18:04:38.507Z,-146.18
2023-03-25T18:07:05.434Z,-146.18
2023-03-25T18:09:34.058Z,-146.18
2023-03-25T18:12:01.085Z,-146.18
2023-03-25T18:14:36.710Z,-146.18
2023-03-25T18:17:04.141Z,-146.18
2023-03-25T18:19:33.308Z,-146.18
2023-03-25T18:22:06.788Z,-146.18
2023-03-25T18:24:44.213Z,-146.18
2023-03-25T18:27:14.143Z,-146.18
2023-03-25T18:29:40.875Z,-146.18
2023-03-25T18:32:07.626Z,-146.18
2023-03-25T18:34:34.584Z,-146.18
2023-03-25T18:37:01.359Z,-146.18
2023-03-25T18:39:28.169Z,-146.18
2023-03-25T18:41:54.828Z,-146.18
2023-03-25T18:44:31.160Z,-146.18
2023-03-25T18:46:57.764Z,-146.18
2023-03-25T18:49:24.411Z,-146.18
2023-03-25T18:51:51.289Z,-146.18
2023-03-25T18:54:18.057Z,-146.18
2023-03-25T18:56:45.066Z,-146.18
2023-03-25T18:59:16.539Z,-146.18
2023-03-25T19:01:43.423Z,-146.18
2023-03-25T19:04:10.196Z,-146.18
2023-03-25T19:06:39.174Z,-146.18
2023-03-25T19:09:08.949Z,-146.18
2023-03-25T19:11:35.839Z,-146.18
2023-03-25T19:14:02.499Z,-146.18
2023-03-25T19:16:29.328Z,-146.18
2023-03-25T19:18:56.106Z,-146.18
2023-03-25T19:21:22.824Z,-146.18
2023-03-25T19:23:49.493Z,-146.18
2023-03-25T19:26:16.166Z,-146.18
2023-03-25T19:28:42.896Z,-146.18
2023-03-25T19:31:12.470Z,-146.18
2023-03-25T19:33:39.273Z,-146.18
2023-03-25T19:36:06.331Z,-146.18
2023-03-25T19:38:33.143Z,-146.18
2023-03-25T19:41:06.675Z,-146.18
2023-03-25T19:43:33.658Z,-146.18
2023-03-25T19:46:01.365Z,-146.18
2023-03-25T19:48:29.877Z,-146.18
2023-03-25T19:50:57.902Z,-146.18
2023-03-25T19:53:26.169Z,-146.18
2023-03-25T19:55:53.943Z,-146.18
2023-03-25T19:58:23.090Z,-146.18
2023-03-25T20:00:51.247Z,-146.18
2023-03-25T20:03:22.074Z,-146.18
2023-03-25T20:05:56.007Z,-146.18
2023-03-25T20:08:23.395Z,-146.18
2023-03-25T20:10:50.638Z,-146.18
2023-03-25T20:13:17.528Z,-146.18
2023-03-25T20:15:44.323Z,-146.18
2023-03-25T20:18:11.293Z,-146.18
2023-03-25T20:20:39.978Z,-146.18
2023-03-25T20:23:06.650Z,-146.18
2023-03-25T20:25:33.400Z,-146.18
2023-03-25T20:28:00.612Z,-146.18
2023-03-25T20:30:27.695Z,-146.18
2023-03-25T20:33:07.003Z,-146.18
2023-03-25T20:36:12.996Z,-146.18
2023-03-25T20:39:13.582Z,-146.18
2023-03-25T20:42:20.947Z,-146.18
2023-03-25T20:45:21.314Z,-146.18
2023-03-25T20:48:06.671Z,-146.18
2023-03-25T20:50:34.217Z,-146.18
2023-03-25T20:53:00.903Z,-146.18
2023-03-25T20:55:27.520Z,-146.18
2023-03-25T20:57:54.170Z,-146.18
2023-03-25T21:00:20.825Z,-146.18
2023-03-25T21:02:47.929Z,-146.18
2023-03-25T21:05:14.820Z,-146.18
2023-03-25T21:07:41.544Z,-146.18
2023-03-25T21:10:20.955Z,-146.18
2023-03-25T21:18:12.964Z,-146.18
2023-03-25T21:21:26.959Z,-146.18
2023-03-25T21:24:33.975Z,-146.18
2023-03-25T21:27:55.944Z,-146.18
2023-03-25T21:31:06.973Z,-146.18
2023-03-25T21:34:07.082Z,-146.18
2023-03-25T21:37:13.977Z,-146.18
2023-03-25T21:40:22.986Z,-146.18
2023-03-25T21:43:23.595Z,-146.18
2023-03-25T21:46:33.968Z,-146.18
2023-03-25T21:49:28.427Z,-146.18
2023-03-25T21:52:18.586Z,-146.18
2023-03-25T21:55:06.345Z,-146.18
2023-03-25T21:57:53.404Z,-146.18
2023-03-25T22:00:41.647Z,-146.18
2023-03-25T22:04:00.193Z,-146.18
2023-03-25T22:08:42.881Z,4.88
2023-03-25T22:11:13.606Z,4.86
2023-03-25T22:13:46.423Z,4.95
2023-03-25T22:16:15.594Z,4.95
2023-03-25T22:18:43.980Z,4.94
2023-03-25T22:21:13.916Z,4.92
2023-03-25T22:23:41.915Z,4.93
2023-03-25T22:26:10.980Z,4.88
2023-03-25T22:28:38.401Z,4.86
2023-03-25T22:31:13.718Z,4.84
2023-03-25T22:33:41.401Z,4.79
2023-03-25T22:36:12.158Z,4.77
2023-03-25T22:38:41.402Z,4.82
2023-03-25T22:41:09.045Z,4.48
2023-03-25T22:43:36.425Z,4.15
2023-03-25T22:49:20.664Z,4.42
2023-03-25T22:51:47.348Z,4.47
2023-03-25T22:54:14.521Z,4.52
2023-03-25T22:56:44.627Z,4.55
2023-03-25T22:59:13.096Z,4.58
2023-03-25T23:01:41.602Z,4.55
2023-03-25T23:04:09.028Z,4.55
2023-03-25T23:06:36.330Z,4.46
2023-03-25T23:09:05.622Z,4.48
2023-03-25T23:11:32.626Z,4.41
2023-03-25T23:14:02.754Z,4.38
2023-03-25T23:16:31.227Z,4.33
2023-03-25T23:18:58.839Z,4.34
2023-03-25T23:21:28.938Z,4.38
2023-03-25T23:23:59.147Z,4.39
2023-03-25T23:26:28.684Z,4.32
2023-03-25T23:29:00.430Z,4.39
2023-03-25T23:31:36.726Z,4.49
2023-03-25T23:34:06.397Z,4.70
2023-03-25T23:36:36.183Z,4.98
2023-03-25T23:39:06.426Z,5.30
2023-03-25T23:41:34.099Z,5.49
2023-03-25T23:44:01.366Z,5.72
2023-03-25T23:46:28.441Z,5.93
2023-03-25T23:48:55.304Z,6.08
2023-03-25T23:51:24.850Z,6.19
2023-03-25T23:53:52.644Z,6.31
2023-03-25T23:56:25.645Z,6.38
2023-03-25T23:58:52.606Z,6.50
